Time;durP1;ratioP1;P1;durP2;ratioP2;P2;SDS_P1;SDS_P2;PMS_P1;PMS_P2;Temp;Humidity;BMP_temperature;BMP_pressure;BME280_temperature;BME280_humidity;BME280_pressure;Samples;Min_cycle;Max_cycle;Signal;HPM_P1;HPM_P2
2023/09/17 00:02:14;;;;;;;18.05;15.55;;;;;;;20.72;57.51;94367.94;4993785;28;20426;-81
2023/09/17 00:04:40;;;;;;;16.33;12.07;;;;;;;20.54;56.25;94346.81;4993040;28;20065;-81
2023/09/17 00:07:05;;;;;;;12.82;10.23;;;;;;;20.45;54.25;94353.63;4998226;28;20038;-82
2023/09/17 00:09:31;;;;;;;12.13;8.98;;;;;;;20.51;53.46;94352.97;4993829;28;20026;-82
2023/09/17 00:11:56;;;;;;;9.75;8.75;;;;;;;20.48;53.07;94337.47;4996416;28;20564;-78
2023/09/17 00:14:22;;;;;;;13.10;8.32;;;;;;;20.41;52.59;94334.66;4992754;28;20499;-82
2023/09/17 00:16:47;;;;;;;10.02;8.13;;;;;;;20.43;52.24;94329.69;4997005;28;20564;-82
2023/09/17 00:19:13;;;;;;;8.18;7.10;;;;;;;20.37;52.69;94352.75;4997503;28;20062;-82
2023/09/17 00:21:39;;;;;;;9.07;7.15;;;;;;;20.26;51.65;94316.69;4995426;28;20597;-81
2023/09/17 00:24:04;;;;;;;9.93;6.85;;;;;;;20.48;51.51;94332.06;4993989;28;20479;-82
2023/09/17 00:26:30;;;;;;;9.43;5.65;;;;;;;20.34;51.31;94321.03;4993166;28;20034;-81
2023/09/17 00:28:55;;;;;;;7.90;6.28;;;;;;;20.41;50.99;94326.56;4992802;28;20045;-82
2023/09/17 00:31:21;;;;;;;7.60;6.43;;;;;;;20.45;51.18;94330.09;4977554;28;20033;-80
2023/09/17 00:33:46;;;;;;;6.55;5.95;;;;;;;20.30;51.04;94306.69;4995329;28;20176;-80
2023/09/17 00:36:12;;;;;;;10.77;5.82;;;;;;;20.42;50.01;94333.53;4998395;28;20693;-81
2023/09/17 00:38:37;;;;;;;8.98;6.00;;;;;;;20.37;50.63;94323.03;4994110;28;20107;-81
2023/09/17 00:41:03;;;;;;;7.07;5.55;;;;;;;20.46;50.48;94334.34;4975755;28;20045;-82
2023/09/17 00:43:30;;;;;;;7.35;5.32;;;;;;;20.31;50.53;94319.06;4983063;28;20060;-79
2023/09/17 00:45:55;;;;;;;9.30;5.53;;;;;;;20.25;51.38;94328.63;4996567;28;20088;-80
2023/09/17 00:48:21;;;;;;;11.25;7.03;;;;;;;20.15;51.25;94307.59;4992586;28;20118;-81
2023/09/17 00:50:47;;;;;;;7.63;6.18;;;;;;;20.25;50.33;94322.44;4995468;28;20069;-82
2023/09/17 00:53:14;;;;;;;12.60;7.20;;;;;;;20.32;50.36;94334.16;4995939;28;20121;-81
2023/09/17 00:55:40;;;;;;;12.18;7.38;;;;;;;20.30;50.04;94336.41;4995748;28;20367;-81
2023/09/17 00:58:06;;;;;;;9.05;7.50;;;;;;;20.21;50.21;94329.69;4996199;28;20039;-82
2023/09/17 01:00:36;;;;;;;13.32;8.05;;;;;;;20.12;50.60;94332.63;4993761;28;20027;-81
2023/09/17 01:03:02;;;;;;;12.10;8.82;;;;;;;20.12;50.89;94332.63;4993003;28;20046;-81
2023/09/17 01:05:37;;;;;;;11.02;9.93;;;;;;;20.17;50.77;94330.44;4995690;28;20070;-82
2023/09/17 01:08:06;;;;;;;12.02;10.23;;;;;;;20.07;51.21;94332.91;4992488;28;20052;-82
2023/09/17 01:10:33;;;;;;;12.57;9.93;;;;;;;20.09;51.77;94331.41;4993646;28;20402;-82
2023/09/17 01:13:00;;;;;;;14.32;10.35;;;;;;;19.92;51.84;94304.13;4992665;28;20084;-81
2023/09/17 01:15:27;;;;;;;14.85;11.50;;;;;;;19.91;51.92;94326.84;4974433;28;20022;-82
2023/09/17 01:17:54;;;;;;;15.60;11.90;;;;;;;19.81;52.49;94316.66;4996563;28;20022;-82
2023/09/17 01:20:25;;;;;;;13.43;11.48;;;;;;;19.83;52.46;94304.38;4993639;28;20033;-82
2023/09/17 01:22:55;;;;;;;18.48;13.80;;;;;;;19.62;53.27;94318.25;4994576;28;20030;-82
2023/09/17 01:25:42;;;;;;;18.10;13.52;;;;;;;19.77;52.88;94318.50;4994344;28;20038;-82
2023/09/17 01:28:11;;;;;;;18.35;13.73;;;;;;;19.75;52.84;94316.16;4976201;28;20038;-82
2023/09/17 01:30:38;;;;;;;16.67;13.77;;;;;;;19.96;52.65;94338.13;4990886;28;20029;-80
2023/09/17 01:33:04;;;;;;;19.17;14.63;;;;;;;19.75;52.67;94303.44;4994836;28;20402;-81
2023/09/17 01:35:33;;;;;;;17.52;13.32;;;;;;;20.03;52.92;94334.78;4976875;28;20030;-81
2023/09/17 01:38:03;;;;;;;16.88;14.95;;;;;;;19.96;52.33;94315.75;4992742;28;20037;-78
2023/09/17 01:40:29;;;;;;;17.50;14.98;;;;;;;19.87;52.30;94307.91;4995441;28;20689;-78
2023/09/17 01:42:56;;;;;;;20.77;16.40;;;;;;;19.89;52.61;94299.44;5000295;28;20041;-82
2023/09/17 01:45:22;;;;;;;22.85;15.75;;;;;;;20.01;52.65;94318.94;5000190;28;20079;-82
2023/09/17 01:47:48;;;;;;;21.77;16.15;;;;;;;20.11;52.49;94331.06;4995914;28;20585;-81
2023/09/17 01:50:16;;;;;;;20.05;15.98;;;;;;;19.97;52.61;94304.59;4996831;28;20032;-82
2023/09/17 01:52:43;;;;;;;24.20;15.05;;;;;;;20.09;52.78;94336.06;4999835;28;20453;-82
2023/09/17 01:55:09;;;;;;;18.60;15.35;;;;;;;20.09;53.04;94342.22;4993306;28;20092;-81
2023/09/17 01:57:35;;;;;;;17.83;15.73;;;;;;;20.13;52.74;94328.78;4999213;28;20452;-82
2023/09/17 02:00:01;;;;;;;17.85;15.82;;;;;;;20.14;52.59;94333.06;4979630;28;20037;-81
2023/09/17 02:02:26;;;;;;;19.77;15.82;;;;;;;19.98;53.00;94324.28;4997523;28;20053;-82
2023/09/17 02:04:52;;;;;;;19.45;15.98;;;;;;;20.06;52.64;94339.47;4996834;28;20038;-82
2023/09/17 02:07:17;;;;;;;19.00;15.23;;;;;;;19.95;52.98;94325.00;4997408;28;20049;-80
2023/09/17 02:09:43;;;;;;;18.77;15.27;;;;;;;20.03;53.76;94335.56;4997413;28;20390;-82
2023/09/17 02:12:08;;;;;;;18.05;15.85;;;;;;;19.95;54.22;94330.38;4996417;28;20482;-82
2023/09/17 02:14:34;;;;;;;25.25;18.83;;;;;;;19.79;53.81;94308.94;4997978;28;20045;-82
2023/09/17 02:16:59;;;;;;;20.33;16.38;;;;;;;19.63;54.90;94313.63;4978043;28;20029;-83
2023/09/17 02:19:25;;;;;;;21.23;18.23;;;;;;;19.80;54.91;94326.66;4999490;28;20066;-81
2023/09/17 02:21:54;;;;;;;23.10;17.60;;;;;;;19.84;55.28;94326.75;4975182;28;20033;-81
2023/09/17 02:24:22;;;;;;;25.73;18.60;;;;;;;19.92;55.54;94342.69;4978301;28;20963;-81
2023/09/17 02:26:47;;;;;;;20.70;18.27;;;;;;;19.73;56.05;94302.25;4973236;28;20586;-81
2023/09/17 02:29:13;;;;;;;20.00;16.33;;;;;;;19.91;56.42;94329.53;4991647;28;20042;-80
2023/09/17 02:31:38;;;;;;;25.35;17.75;;;;;;;19.91;57.09;94341.13;4998968;28;20046;-79
2023/09/17 02:34:04;;;;;;;20.75;17.08;;;;;;;19.95;57.89;94350.06;4998189;28;20044;-82
2023/09/17 02:36:30;;;;;;;19.65;16.58;;;;;;;19.85;57.89;94341.81;4997981;28;20480;-82
2023/09/17 02:38:56;;;;;;;18.95;15.38;;;;;;;19.83;58.07;94333.28;4983405;28;20061;-82
2023/09/17 02:41:21;;;;;;;20.17;15.75;;;;;;;19.93;58.29;94354.28;4976628;28;20038;-81
2023/09/17 02:43:47;;;;;;;19.42;16.80;;;;;;;19.93;58.40;94343.47;4990458;28;20033;-81
2023/09/17 02:46:12;;;;;;;18.35;15.77;;;;;;;19.97;58.17;94344.31;4982499;28;20049;-82
2023/09/17 02:48:37;;;;;;;16.15;14.38;;;;;;;19.64;58.33;94297.09;4995792;28;20756;-81
2023/09/17 02:51:03;;;;;;;19.25;16.20;;;;;;;19.72;58.91;94312.28;4997815;28;20429;-82
2023/09/17 02:53:28;;;;;;;21.17;14.65;;;;;;;19.80;58.21;94320.50;4994757;28;20042;-77
2023/09/17 02:55:55;;;;;;;19.02;16.55;;;;;;;19.90;58.21;94333.38;4995889;28;20607;-82
2023/09/17 02:58:20;;;;;;;22.95;17.48;;;;;;;19.82;58.07;94319.00;4995465;28;20034;-82
2023/09/17 03:00:46;;;;;;;25.27;16.73;;;;;;;19.92;57.33;94331.91;4980333;28;20052;-82
2023/09/17 03:03:11;;;;;;;23.65;17.38;;;;;;;19.91;56.84;94324.94;4995506;28;20880;-82
2023/09/17 03:05:39;;;;;;;21.15;16.90;;;;;;;19.90;56.78;94322.59;4996190;28;20057;-82
2023/09/17 03:08:09;;;;;;;21.33;17.58;;;;;;;19.90;56.74;94319.88;4991711;28;20604;-82
2023/09/17 03:10:41;;;;;;;22.63;18.77;;;;;;;19.65;56.64;94293.25;4995762;28;20044;-82
2023/09/17 03:13:08;;;;;;;23.65;18.08;;;;;;;19.81;56.76;94314.72;4995709;28;20044;-78
2023/09/17 03:15:34;;;;;;;24.75;19.33;;;;;;;19.81;56.25;94309.34;4994869;28;20535;-81
2023/09/17 03:17:59;;;;;;;23.77;19.67;;;;;;;19.67;56.61;94317.97;4997408;28;20033;-82
2023/09/17 03:20:27;;;;;;;21.45;18.30;;;;;;;19.74;56.36;94311.91;4993762;28;20042;-82
2023/09/17 03:22:53;;;;;;;27.75;19.73;;;;;;;19.85;56.28;94315.56;4974508;28;20046;-81
2023/09/17 03:25:19;;;;;;;24.40;18.20;;;;;;;19.83;56.11;94314.38;4978489;28;20045;-82
2023/09/17 03:27:45;;;;;;;23.38;16.50;;;;;;;19.83;56.79;94322.47;4997045;28;20038;-81
2023/09/17 03:30:12;;;;;;;20.63;15.88;;;;;;;19.84;56.86;94324.81;4997480;28;20105;-79
2023/09/17 03:32:37;;;;;;;19.50;15.23;;;;;;;19.71;57.17;94310.69;4994075;28;20176;-80
2023/09/17 03:35:04;;;;;;;16.45;14.32;;;;;;;19.73;57.73;94327.31;4987763;28;20037;-81
2023/09/17 03:37:30;;;;;;;19.92;15.30;;;;;;;19.68;58.36;94324.91;4996091;28;20056;-81
2023/09/17 03:40:12;;;;;;;19.35;13.27;;;;;;;19.71;58.45;94328.81;4993685;28;20037;-82
2023/09/17 03:42:39;;;;;;;16.88;13.63;;;;;;;19.73;58.59;94324.63;4996328;28;20057;-82
2023/09/17 03:45:06;;;;;;;16.25;13.25;;;;;;;19.78;58.65;94331.66;4997273;28;20089;-82
2023/09/17 03:47:34;;;;;;;16.48;14.30;;;;;;;19.49;58.97;94297.97;4992797;28;20065;-81
2023/09/17 03:49:59;;;;;;;20.73;13.20;;;;;;;19.82;58.52;94332.50;4994322;28;20367;-82
2023/09/17 03:52:27;;;;;;;15.20;13.60;;;;;;;19.79;58.42;94327.81;4995132;28;20560;-82
2023/09/17 03:54:53;;;;;;;15.05;13.20;;;;;;;19.74;57.65;94326.19;4994485;28;20037;-82
2023/09/17 03:57:18;;;;;;;17.23;12.57;;;;;;;19.71;57.80;94332.28;4979458;28;20021;-81
2023/09/17 03:59:43;;;;;;;15.70;13.38;;;;;;;19.42;57.67;94292.41;4996841;28;20415;-81
2023/09/17 04:02:09;;;;;;;16.13;13.70;;;;;;;19.59;57.70;94331.69;4994316;28;20054;-82
2023/09/17 04:04:34;;;;;;;17.95;14.35;;;;;;;19.52;58.06;94328.84;4977601;28;21200;-82
2023/09/17 04:07:01;;;;;;;16.27;13.23;;;;;;;19.58;58.30;94347.09;4995298;28;20037;-81
2023/09/17 04:09:26;;;;;;;14.98;13.32;;;;;;;19.50;58.30;94337.31;4996781;28;20607;-82
2023/09/17 04:11:51;;;;;;;16.80;13.75;;;;;;;19.33;58.51;94316.13;4995853;28;20031;-78
2023/09/17 04:14:17;;;;;;;20.58;14.82;;;;;;;19.47;58.02;94332.59;4993874;28;20069;-80
2023/09/17 04:16:42;;;;;;;16.52;13.48;;;;;;;19.33;57.88;94316.13;4994109;28;20056;-82
2023/09/17 04:19:08;;;;;;;15.10;13.45;;;;;;;19.47;58.00;94338.00;4993815;28;21009;-80
2023/09/17 04:21:33;;;;;;;17.27;15.45;;;;;;;19.43;58.20;94337.13;4997017;28;20168;-82
2023/09/17 04:24:00;;;;;;;17.95;15.57;;;;;;;19.41;57.63;94334.00;4997476;28;20127;-80
2023/09/17 04:26:25;;;;;;;18.27;15.77;;;;;;;19.51;57.99;94349.63;4997374;28;20125;-81
2023/09/17 04:28:50;;;;;;;18.83;14.40;;;;;;;19.59;58.05;94350.56;4997113;28;20835;-81
2023/09/17 04:31:17;;;;;;;18.63;15.55;;;;;;;19.63;58.05;94356.81;4980528;28;21924;-82
2023/09/17 04:33:42;;;;;;;17.10;15.30;;;;;;;19.35;58.27;94319.25;4997707;28;20075;-82
2023/09/17 04:36:08;;;;;;;19.17;16.25;;;;;;;19.64;57.96;94361.06;4992995;28;20033;-81
2023/09/17 04:38:34;;;;;;;23.58;19.85;;;;;;;19.54;58.11;94337.38;4995379;28;20036;-82
2023/09/17 04:41:00;;;;;;;22.67;17.30;;;;;;;19.68;57.49;94361.91;4975193;28;20042;-82
2023/09/17 04:43:26;;;;;;;28.15;17.25;;;;;;;19.65;57.48;94358.00;4966200;28;20549;-82
2023/09/17 04:45:52;;;;;;;19.92;16.23;;;;;;;19.66;57.49;94358.78;4993159;28;20114;-81
2023/09/17 04:48:17;;;;;;;18.65;15.50;;;;;;;19.72;57.26;94360.84;4977778;28;20086;-80
2023/09/17 04:50:44;;;;;;;19.10;15.32;;;;;;;19.57;56.63;94350.91;4975139;28;20034;-81
2023/09/17 04:53:10;;;;;;;20.23;16.27;;;;;;;19.71;56.03;94353.88;4987930;28;20588;-81
2023/09/17 04:55:36;;;;;;;18.52;16.05;;;;;;;19.66;56.03;94350.69;4994112;28;20044;-81
2023/09/17 04:58:02;;;;;;;19.05;15.88;;;;;;;19.60;57.14;94363.69;4990488;28;20418;-81
2023/09/17 05:00:27;;;;;;;22.75;17.23;;;;;;;19.70;57.35;94373.91;4979864;28;20023;-82
2023/09/17 05:02:53;;;;;;;20.25;15.93;;;;;;;19.72;58.29;94370.84;4993828;28;20054;-81
2023/09/17 05:05:20;;;;;;;29.55;18.38;;;;;;;19.63;58.21;94356.81;4996029;28;20134;-81
2023/09/17 05:07:47;;;;;;;21.83;18.30;;;;;;;19.66;57.67;94351.47;4993747;28;20315;-82
2023/09/17 05:10:14;;;;;;;24.70;18.85;;;;;;;19.75;57.66;94365.53;4997939;28;20034;-81
2023/09/17 05:12:41;;;;;;;20.80;17.10;;;;;;;19.56;57.32;94330.47;4976140;28;20125;-81
2023/09/17 05:15:06;;;;;;;25.75;18.70;;;;;;;19.90;57.46;94371.16;4999075;28;20038;-81
2023/09/17 05:17:32;;;;;;;29.33;19.17;;;;;;;19.91;57.50;94364.63;4999485;28;20070;-82
2023/09/17 05:19:57;;;;;;;29.30;21.00;;;;;;;19.77;57.55;94345.50;4999821;28;20061;-80
2023/09/17 05:22:22;;;;;;;23.85;20.17;;;;;;;19.88;57.53;94352.66;4995361;28;20041;-82
2023/09/17 05:24:48;;;;;;;24.80;19.13;;;;;;;19.95;57.71;94362.78;5000280;28;20118;-81
2023/09/17 05:27:13;;;;;;;22.25;18.27;;;;;;;20.06;57.24;94361.06;4997624;28;20022;-82
2023/09/17 05:29:40;;;;;;;26.58;18.00;;;;;;;20.05;57.13;94356.78;4997786;28;20033;-82
2023/09/17 05:32:06;;;;;;;26.13;19.88;;;;;;;19.98;57.38;94345.88;4999563;28;20034;-82
2023/09/17 05:34:31;;;;;;;24.48;18.38;;;;;;;20.12;55.69;94357.72;4997813;28;20030;-82
2023/09/17 05:36:56;;;;;;;27.52;20.17;;;;;;;20.09;55.72;94352.25;5000583;28;20046;-82
2023/09/17 05:39:22;;;;;;;23.35;18.20;;;;;;;20.26;55.98;94368.00;4999023;28;20053;-80
2023/09/17 05:41:48;;;;;;;24.25;18.98;;;;;;;20.23;55.80;94349.03;5000417;28;20048;-82
2023/09/17 05:44:13;;;;;;;23.27;17.85;;;;;;;20.30;55.36;94358.03;4995118;28;20119;-82
2023/09/17 05:46:38;;;;;;;22.75;18.40;;;;;;;20.24;55.58;94354.06;4998523;28;20046;-82
2023/09/17 05:49:04;;;;;;;21.90;17.40;;;;;;;20.20;55.38;94353.22;4982567;28;20103;-82
2023/09/17 05:51:29;;;;;;;22.23;16.83;;;;;;;20.18;55.62;94366.31;4978996;28;20034;-81
2023/09/17 05:53:55;;;;;;;29.02;16.75;;;;;;;20.22;56.03;94372.56;4996763;28;20693;-82
2023/09/17 05:56:20;;;;;;;23.02;18.13;;;;;;;20.15;55.92;94364.28;4977632;28;20117;-81
2023/09/17 05:58:46;;;;;;;24.33;19.50;;;;;;;19.96;56.51;94375.16;4990904;28;20460;-82
2023/09/17 06:01:11;;;;;;;26.65;18.80;;;;;;;19.93;57.07;94386.66;4977747;28;20431;-82
2023/09/17 06:03:37;;;;;;;30.25;20.17;;;;;;;19.85;57.27;94364.16;4997935;28;20129;-82
2023/09/17 06:06:04;;;;;;;22.27;17.85;;;;;;;19.83;56.94;94376.47;4997736;28;20747;-82
2023/09/17 06:08:30;;;;;;;26.08;19.30;;;;;;;19.87;57.05;94383.47;4996369;28;20173;-82
2023/09/17 06:10:55;;;;;;;21.88;18.50;;;;;;;19.42;57.09;94308.59;4995677;28;20046;-82
2023/09/17 06:13:21;;;;;;;25.73;19.85;;;;;;;19.80;56.91;94366.38;5000049;28;20139;-82
2023/09/17 06:15:46;;;;;;;22.40;19.00;;;;;;;19.86;56.42;94370.34;4993239;28;20041;-81
2023/09/17 06:18:12;;;;;;;25.77;18.58;;;;;;;20.04;56.12;94388.41;4996142;28;20553;-82
2023/09/17 06:20:39;;;;;;;26.83;19.10;;;;;;;20.05;55.88;94379.16;4997733;28;20169;-81
2023/09/17 06:23:04;;;;;;;25.60;20.80;;;;;;;20.06;56.33;94390.75;4980041;28;20029;-81
2023/09/17 06:25:30;;;;;;;33.70;21.23;;;;;;;20.03;57.17;94370.66;4994637;28;20383;-82
2023/09/17 06:27:55;;;;;;;28.98;20.17;;;;;;;20.08;56.39;94383.09;4996391;28;20091;-81
2023/09/17 06:30:21;;;;;;;29.40;21.20;;;;;;;20.17;56.62;94395.25;4993452;28;20056;-81
2023/09/17 06:32:47;;;;;;;27.52;20.33;;;;;;;20.04;57.31;94372.22;4994804;28;20524;-81
2023/09/17 06:35:12;;;;;;;29.55;19.58;;;;;;;20.34;56.48;94404.78;4995300;28;20046;-82
2023/09/17 06:37:38;;;;;;;29.17;21.05;;;;;;;20.27;56.58;94387.69;4994713;28;20089;-79
2023/09/17 06:40:05;;;;;;;29.73;21.38;;;;;;;20.32;56.25;94390.88;4997607;28;20069;-82
2023/09/17 06:42:30;;;;;;;31.77;21.15;;;;;;;20.44;56.36;94406.88;4997144;28;20030;-82
2023/09/17 06:44:56;;;;;;;30.10;20.23;;;;;;;20.52;56.76;94413.19;4995926;28;20554;-82
2023/09/17 06:47:21;;;;;;;35.58;23.15;;;;;;;20.41;57.03;94379.81;4997021;28;20073;-82
2023/09/17 06:49:47;;;;;;;26.63;20.27;;;;;;;20.42;57.70;94379.47;4973253;28;20030;-82
2023/09/17 06:52:12;;;;;;;29.38;21.27;;;;;;;20.46;57.93;94383.00;4983006;28;20121;-82
2023/09/17 06:54:38;;;;;;;30.45;20.83;;;;;;;20.36;58.71;94378.19;4992178;28;20045;-78
2023/09/17 06:57:04;;;;;;;33.40;21.55;;;;;;;20.10;60.04;94399.69;4986494;28;20030;-81
2023/09/17 06:59:29;;;;;;;29.73;21.17;;;;;;;20.36;58.77;94401.72;4976580;28;20096;-82
2023/09/17 07:01:54;;;;;;;30.95;22.25;;;;;;;20.02;59.75;94384.53;4994954;28;20084;-82
2023/09/17 07:04:20;;;;;;;29.30;19.30;;;;;;;20.09;59.86;94400.84;4997027;28;20436;-82
2023/09/17 07:06:45;;;;;;;30.73;19.63;;;;;;;20.34;59.57;94401.28;4996777;28;20144;-82
2023/09/17 07:09:11;;;;;;;27.98;19.27;;;;;;;20.45;58.94;94381.44;4997844;28;20029;-82
2023/09/17 07:11:36;;;;;;;31.00;21.75;;;;;;;20.43;58.98;94393.75;4995641;28;20650;-82
2023/09/17 07:14:08;;;;;;;28.65;19.92;;;;;;;20.36;58.40;94396.31;4997868;28;20045;-82
2023/09/17 07:16:34;;;;;;;30.35;20.60;;;;;;;20.00;59.21;94389.47;4996223;28;20597;-82
2023/09/17 07:19:00;;;;;;;30.88;21.38;;;;;;;19.98;59.31;94379.06;4993787;28;20037;-81
2023/09/17 07:21:25;;;;;;;30.42;21.42;;;;;;;20.41;59.02;94401.41;4996438;28;20022;-77
2023/09/17 07:23:52;;;;;;;30.58;20.77;;;;;;;20.61;58.46;94394.81;4999363;28;20029;-82
2023/09/17 07:26:19;;;;;;;29.45;19.77;;;;;;;20.65;58.04;94395.63;4998582;28;20040;-82
2023/09/17 07:28:45;;;;;;;28.38;19.38;;;;;;;20.37;58.65;94401.38;4997587;28;20026;-80
2023/09/17 07:31:12;;;;;;;27.25;18.80;;;;;;;20.68;58.38;94421.19;4992115;28;20046;-82
2023/09/17 07:33:39;;;;;;;28.75;20.15;;;;;;;20.65;58.85;94419.19;4992754;28;20035;-83
2023/09/17 07:36:05;;;;;;;28.35;20.55;;;;;;;20.21;59.63;94408.81;4998582;28;20021;-82
2023/09/17 07:38:31;;;;;;;29.55;19.88;;;;;;;20.79;58.46;94432.91;4997685;28;20885;-81
2023/09/17 07:40:56;;;;;;;37.05;19.95;;;;;;;20.90;57.96;94418.47;4994058;28;20045;-83
2023/09/17 07:43:22;;;;;;;29.70;20.33;;;;;;;20.61;58.43;94427.22;4995547;28;20030;-82
2023/09/17 07:45:47;;;;;;;29.15;21.15;;;;;;;20.69;57.93;94411.91;4992097;28;20041;-82
2023/09/17 07:48:12;;;;;;;28.80;20.67;;;;;;;20.54;58.92;94433.28;4995075;28;20092;-83
2023/09/17 07:50:39;;;;;;;30.25;20.23;;;;;;;20.72;58.70;94439.00;4995317;28;20030;-81
2023/09/17 07:53:05;;;;;;;25.85;19.88;;;;;;;20.83;58.70;94436.44;4979625;28;20129;-82
2023/09/17 07:55:30;;;;;;;30.52;20.40;;;;;;;20.98;57.88;94436.34;4995928;28;20525;-84
2023/09/17 07:57:56;;;;;;;28.73;22.00;;;;;;;21.09;57.81;94436.50;4980513;28;20034;-79
2023/09/17 08:00:21;;;;;;;29.45;20.20;;;;;;;20.97;57.05;94428.59;4977340;28;20557;-83
2023/09/17 08:02:47;;;;;;;26.00;19.80;;;;;;;21.09;57.39;94435.72;4994236;28;20046;-84
2023/09/17 08:05:13;;;;;;;27.15;19.08;;;;;;;20.80;57.45;94423.66;4997422;28;20478;-83
2023/09/17 08:07:40;;;;;;;28.33;19.90;;;;;;;20.95;57.25;94422.78;4992914;28;20037;-84
2023/09/17 08:10:06;;;;;;;31.85;21.80;;;;;;;21.13;56.80;94414.91;4973003;28;20136;-83
2023/09/17 08:12:32;;;;;;;25.98;18.83;;;;;;;21.37;56.52;94431.47;4974501;28;20030;-84
2023/09/17 08:14:58;;;;;;;32.42;21.30;;;;;;;21.53;56.35;94433.22;4991489;28;20636;-83
2023/09/17 08:17:25;;;;;;;34.75;21.25;;;;;;;21.53;56.15;94433.22;4996535;28;20128;-84
2023/09/17 08:19:51;;;;;;;27.63;20.10;;;;;;;21.48;55.88;94420.81;4994555;28;20173;-83
2023/09/17 08:22:16;;;;;;;33.30;20.50;;;;;;;21.37;55.32;94409.84;4993782;28;20091;-83
2023/09/17 08:24:41;;;;;;;26.98;20.00;;;;;;;21.48;55.54;94439.75;4994064;28;20034;-83
2023/09/17 08:27:07;;;;;;;31.75;22.08;;;;;;;21.29;55.47;94435.25;4993420;28;20041;-83
2023/09/17 08:29:33;;;;;;;30.63;21.35;;;;;;;21.42;55.41;94419.56;4993002;28;20038;-83
2023/09/17 08:31:59;;;;;;;32.13;21.75;;;;;;;21.48;54.79;94425.44;4996691;28;20411;-83
2023/09/17 08:34:25;;;;;;;29.70;20.80;;;;;;;21.61;54.60;94426.81;4974908;28;20042;-83
2023/09/17 08:36:51;;;;;;;29.00;22.20;;;;;;;21.74;54.41;94438.94;4978376;28;20037;-82
2023/09/17 08:39:16;;;;;;;27.83;20.42;;;;;;;21.69;54.36;94407.56;4996520;28;20415;-83
2023/09/17 08:41:42;;;;;;;28.38;19.17;;;;;;;21.77;54.51;94405.72;4994068;28;20045;-81
2023/09/17 08:44:08;;;;;;;28.00;20.70;;;;;;;21.94;53.99;94420.59;4985231;28;20121;-83
2023/09/17 08:46:36;;;;;;;37.00;21.70;;;;;;;21.80;54.01;94416.56;4985707;28;20034;-82
2023/09/17 08:49:02;;;;;;;25.88;18.77;;;;;;;21.72;54.64;94414.16;4996252;28;20527;-83
2023/09/17 08:51:33;;;;;;;33.10;20.50;;;;;;;21.73;53.94;94411.09;4993810;28;20412;-84
2023/09/17 08:54:11;;;;;;;26.67;19.20;;;;;;;21.79;53.97;94406.13;4994284;28;20029;-83
2023/09/17 08:56:42;;;;;;;25.55;19.27;;;;;;;21.66;53.96;94418.34;4991407;28;20468;-84
2023/09/17 08:59:12;;;;;;;29.42;19.10;;;;;;;21.86;53.96;94414.31;4994851;28;20572;-78
2023/09/17 09:01:41;;;;;;;26.88;19.17;;;;;;;21.91;53.87;94416.69;4993607;28;20196;-83
2023/09/17 09:04:08;;;;;;;25.27;18.27;;;;;;;21.62;53.49;94418.28;4994787;28;20075;-82
2023/09/17 09:06:34;;;;;;;27.35;20.27;;;;;;;21.85;53.50;94412.78;4992811;28;20014;-83
2023/09/17 09:09:01;;;;;;;29.80;20.30;;;;;;;21.95;53.34;94395.84;4971328;28;20072;-83
2023/09/17 09:11:27;;;;;;;32.58;19.63;;;;;;;21.92;53.14;94406.66;4993090;28;20041;-83
2023/09/17 09:13:55;;;;;;;25.48;20.52;;;;;;;22.01;52.90;94405.19;4992789;28;20039;-82
2023/09/17 09:16:21;;;;;;;31.73;20.88;;;;;;;21.91;53.09;94411.28;4991855;28;20046;-85
2023/09/17 09:18:47;;;;;;;26.25;19.98;;;;;;;22.02;52.89;94395.94;4995953;28;20041;-83
2023/09/17 09:21:14;;;;;;;35.20;20.60;;;;;;;21.93;52.80;94405.50;4995250;28;21016;-79
2023/09/17 09:23:40;;;;;;;29.40;20.52;;;;;;;21.77;53.16;94389.47;4995341;28;20117;-81
2023/09/17 09:26:06;;;;;;;23.40;17.88;;;;;;;21.90;52.97;94409.75;4991853;28;20055;-81
2023/09/17 09:28:31;;;;;;;24.88;19.08;;;;;;;21.88;52.59;94383.03;4995218;28;20049;-85
2023/09/17 09:30:57;;;;;;;26.77;18.45;;;;;;;22.00;52.81;94395.50;4970899;28;20038;-79
2023/09/17 09:33:23;;;;;;;23.00;17.50;;;;;;;22.13;52.42;94402.25;4970357;28;20765;-80
2023/09/17 09:35:49;;;;;;;28.05;18.98;;;;;;;22.15;52.18;94397.22;4992571;28;20045;-79
2023/09/17 09:38:15;;;;;;;27.77;20.55;;;;;;;21.95;52.23;94371.47;4977129;28;20068;-79
2023/09/17 09:40:43;;;;;;;28.25;19.55;;;;;;;22.10;51.92;94373.16;4992491;28;20057;-78
2023/09/17 09:43:36;;;;;;;26.67;18.10;;;;;;;22.10;51.88;94361.56;4992477;28;20081;-80
2023/09/17 09:46:04;;;;;;;21.88;18.33;;;;;;;22.38;51.12;94407.94;4977111;28;20045;-79
2023/09/17 09:48:30;;;;;;;33.45;20.48;;;;;;;22.43;51.14;94415.72;4987599;28;20025;-78
2023/09/17 09:50:55;;;;;;;24.80;18.42;;;;;;;22.34;51.50;94409.06;4989088;28;20029;-79
2023/09/17 09:53:21;;;;;;;26.08;19.15;;;;;;;22.37;51.56;94405.59;4992184;28;20422;-79
2023/09/17 09:55:47;;;;;;;24.58;19.23;;;;;;;22.41;51.39;94411.81;4985045;28;20516;-79
2023/09/17 09:58:14;;;;;;;28.90;19.35;;;;;;;22.38;51.08;94396.31;4979456;28;20593;-77
2023/09/17 10:00:44;;;;;;;24.15;17.55;;;;;;;22.40;51.02;94393.97;4988152;28;20022;-79
2023/09/17 10:03:11;;;;;;;25.58;19.45;;;;;;;22.44;50.94;94400.25;4989700;28;20076;-79
2023/09/17 10:05:39;;;;;;;23.77;18.55;;;;;;;22.59;51.00;94407.31;4990371;28;20038;-79
2023/09/17 10:08:07;;;;;;;23.02;17.00;;;;;;;22.62;50.94;94406.59;4991269;28;20791;-78
2023/09/17 10:14:04;;;;;;;24.85;19.30;;;;;;;22.50;51.09;94399.50;4991261;28;20041;-78
2023/09/17 10:16:30;;;;;;;25.23;17.58;;;;;;;22.38;51.07;94396.31;4974504;28;20049;-79
2023/09/17 10:18:58;;;;;;;26.63;18.70;;;;;;;22.30;51.09;94403.56;4996420;28;20084;-79
2023/09/17 10:21:26;;;;;;;25.80;17.80;;;;;;;22.08;51.19;94385.53;4971017;28;20058;-79
2023/09/17 10:23:54;;;;;;;21.88;17.45;;;;;;;22.17;51.39;94391.44;5000332;28;20489;-78
2023/09/17 10:26:23;;;;;;;26.35;19.52;;;;;;;22.39;51.22;94389.75;5000936;28;20062;-78
2023/09/17 10:28:52;;;;;;;21.67;17.25;;;;;;;22.55;50.78;94395.66;4996293;28;20146;-79
2023/09/17 10:31:18;;;;;;;26.33;18.25;;;;;;;22.61;51.31;94394.19;4996752;28;20038;-79
2023/09/17 10:33:47;;;;;;;22.38;17.63;;;;;;;22.36;51.34;94376.91;4997634;28;20021;-80
2023/09/17 10:36:13;;;;;;;24.27;18.15;;;;;;;22.28;51.36;94403.19;4981363;28;20042;-80
2023/09/17 10:38:41;;;;;;;27.48;19.13;;;;;;;22.29;51.17;94389.25;4995307;28;20046;-79
2023/09/17 10:41:07;;;;;;;27.15;19.83;;;;;;;22.32;51.45;94403.22;4997404;28;20969;-80
2023/09/17 10:43:36;;;;;;;27.15;19.52;;;;;;;22.49;51.08;94402.56;4998675;28;20041;-78
2023/09/17 10:46:05;;;;;;;26.75;19.83;;;;;;;22.60;50.61;94392.59;4999561;28;20034;-79
2023/09/17 10:48:33;;;;;;;27.15;19.35;;;;;;;22.67;50.36;94392.69;4971711;28;20037;-79
2023/09/17 10:51:00;;;;;;;27.73;20.60;;;;;;;22.61;50.66;94394.19;4993393;28;20109;-79
2023/09/17 10:53:26;;;;;;;25.30;19.23;;;;;;;22.59;50.69;94391.81;5000054;28;20029;-79
2023/09/17 10:56:00;;;;;;;26.55;18.95;;;;;;;22.65;50.36;94390.34;4997868;28;20042;-80
2023/09/17 10:58:36;;;;;;;27.80;20.48;;;;;;;22.72;50.12;94390.41;4996791;28;20029;-78
2023/09/17 11:01:03;;;;;;;32.78;22.05;;;;;;;22.63;50.13;94373.66;4994392;28;20132;-78
2023/09/17 11:03:31;;;;;;;27.92;22.35;;;;;;;22.69;49.86;94361.31;4992269;28;20482;-78
2023/09/17 11:06:01;;;;;;;25.75;20.52;;;;;;;22.73;50.19;94372.22;4995688;28;20052;-78
2023/09/17 11:08:26;;;;;;;27.77;20.02;;;;;;;22.76;50.22;94362.53;4993936;28;20134;-78
2023/09/17 11:10:52;;;;;;;26.52;20.13;;;;;;;22.85;50.59;94352.91;4975922;28;20038;-78
2023/09/17 11:13:19;;;;;;;28.52;21.08;;;;;;;22.87;50.32;94361.47;4991406;28;20042;-78
2023/09/17 11:15:46;;;;;;;29.70;21.63;;;;;;;22.83;50.12;94357.91;4995836;28;20053;-79
2023/09/17 11:18:11;;;;;;;28.38;20.23;;;;;;;22.78;50.14;94343.97;4994269;28;20018;-79
2023/09/17 11:20:56;;;;;;;30.60;20.98;;;;;;;22.90;49.75;94358.00;4993659;28;21292;-79